Tulsa, OK (74134)

12:21 PM CDT on July 27, 2016 (GMT -0500)
Belle Trace II at Battle Creek | | Change Station

Elev 810 ft 36.10 °N, 95.81 °W | Updated 29 seconds ago

Mostly Cloudy
Mostly Cloudy
87.1 °F
Feels Like 84 °F
N
2.5
Wind Variable Wind from ENE
Gusts 2.5 mph

Today
High -- | Low -- °F
--% Chance of Precip.
Yesterday
High -- | Low -- °F
Precip. -- in
Pressure 29.93 in
Visibility 10.0 miles
Clouds Few 2400 ft
Few 5000 ft
Scattered Clouds 18000 ft
Mostly Cloudy 25000 ft
Heat Index 84 °F
Dew Point 24 °F
Humidity 10%
Rainfall 0.00 in
Snow Depth Not available.
6:26 AM 8:32 PM
Last Quarter, 41% visible
METAR KTUL 271653Z 00000KT 10SM FEW024 FEW050 SCT180 BKN250 31/24 A2995 RMK AO2 SLP133 T03060239
Pressure 29.93 in
Visibility 10.0 miles
Clouds Few 2400 ft
Few 5000 ft
Scattered Clouds 18000 ft
Mostly Cloudy 25000 ft
Heat Index 84 °F
Dew Point 24 °F
Humidity 10%
Rainfall 0.00 in
Snow Depth Not available.
6:26 AM 8:32 PM
Last Quarter, 41% visible
METAR KTUL 271653Z 00000KT 10SM FEW024 FEW050 SCT180 BKN250 31/24 A2995 RMK AO2 SLP133 T03060239

10-Day Weather Forecast

Almanac

Astronomy

Jul. 27, 2016 Rise Set
Actual Time
Civil Twilight
Nautical Twilight
Astronomical Twilight
Moon
Length of Visible Light
Length of Day
Tomorrow will be .
, % of the Moon is Illuminated

Today's Extremes

State Highs State Lows

Community

WunderPhotos

Upload Photos

1,927,887 photos uploaded!

WunderBlog® & News

Nearby

Air Quality

  Air Quality AQ Index Pollutant
Not available.

Snow Depth

Station Depth Elevation

Earthquake Activity

City Distance Mag. Time & Date
Minimum magnitude displayed is 2.5.

Coastal Water Temperatures

Place Temperature

Stations

Nearby Weather Stations

Station Location Temp. Windchill Dew Point Humidity Wind Precip. Elev Updated Type
                   

Watches & Warnings

There are currently no watches in effect.